FVGR weather

Grand Reef Airport
Mutare, Manicaland Province, Zimbabwe

Public forecast

Using degrees Celsius for public forecast. Weather courtesy of forecast.io.

Closest aviation weather report (METAR) to Grand Reef Airport

Closest report is Chimoio Airport, 56.5 nm (104.6 km) E. Retrieved 2020/06/02 04:00 UTC (55 minutes ago):

FQCH 020400Z /////KT 2000 BR SCT015 13/13 Q1027

Closest aviation forecast (TAF) to Grand Reef Airport

Forecast is more than 6 hours old.

Closest forecast is Chimoio Airport, 56.5 nm (104.6 km) E. Retrieved 2020/06/01 18:00 UTC (11 hours ago):

TAF FQCH 011600Z 0118/0218 10010KT 9999 FEW015 TX23/0213Z TN12/0203Z BECMG 0206/0208 VRB02KT BECMG 0212/0214 12010KT